sensor_id;sensor_type;location;lat;lon;timestamp;temperature;humidity
15182;DHT22;7692;50.602;8.692;2023-11-21T00:00:15;8.10;99.90
15182;DHT22;7692;50.602;8.692;2023-11-21T00:02:44;8.00;99.90
15182;DHT22;7692;50.602;8.692;2023-11-21T00:05:14;8.10;99.90
15182;DHT22;7692;50.602;8.692;2023-11-21T00:07:43;8.00;99.90
15182;DHT22;7692;50.602;8.692;2023-11-21T00:10:12;8.00;99.90
15182;DHT22;7692;50.602;8.692;2023-11-21T00:12:43;8.10;99.90
15182;DHT22;7692;50.602;8.692;2023-11-21T00:15:11;8.00;99.90
15182;DHT22;7692;50.602;8.692;2023-11-21T00:17:41;8.10;99.90
15182;DHT22;7692;50.602;8.692;2023-11-21T00:20:09;8.10;99.90
15182;DHT22;7692;50.602;8.692;2023-11-21T00:22:40;8.10;99.90
15182;DHT22;7692;50.602;8.692;2023-11-21T00:25:09;8.10;99.90
15182;DHT22;7692;50.602;8.692;2023-11-21T00:27:37;8.10;99.90
15182;DHT22;7692;50.602;8.692;2023-11-21T00:30:06;8.10;99.90
15182;DHT22;7692;50.602;8.692;2023-11-21T00:32:35;8.10;99.90
15182;DHT22;7692;50.602;8.692;2023-11-21T00:35:06;8.10;99.90
15182;DHT22;7692;50.602;8.692;2023-11-21T00:37:34;8.00;99.90
15182;DHT22;7692;50.602;8.692;2023-11-21T00:40:03;8.00;99.90
15182;DHT22;7692;50.602;8.692;2023-11-21T00:42:34;8.00;99.90
15182;DHT22;7692;50.602;8.692;2023-11-21T00:45:02;8.00;99.90
15182;DHT22;7692;50.602;8.692;2023-11-21T00:47:31;8.00;99.90
15182;DHT22;7692;50.602;8.692;2023-11-21T00:50:00;8.00;99.90
15182;DHT22;7692;50.602;8.692;2023-11-21T00:52:30;8.00;99.90
15182;DHT22;7692;50.602;8.692;2023-11-21T00:54:58;7.90;99.90
15182;DHT22;7692;50.602;8.692;2023-11-21T00:57:27;7.90;99.90
15182;DHT22;7692;50.602;8.692;2023-11-21T00:59:55;7.90;99.90
15182;DHT22;7692;50.602;8.692;2023-11-21T01:02:23;7.90;99.90
15182;DHT22;7692;50.602;8.692;2023-11-21T01:04:53;7.90;99.90
15182;DHT22;7692;50.602;8.692;2023-11-21T01:07:21;7.90;99.90
15182;DHT22;7692;50.602;8.692;2023-11-21T01:09:51;7.90;99.90
15182;DHT22;7692;50.602;8.692;2023-11-21T01:12:20;7.90;99.90
15182;DHT22;7692;50.602;8.692;2023-11-21T01:14:47;7.90;99.90
15182;DHT22;7692;50.602;8.692;2023-11-21T01:17:17;7.90;99.90
15182;DHT22;7692;50.602;8.692;2023-11-21T01:19:45;7.90;99.90
15182;DHT22;7692;50.602;8.692;2023-11-21T01:22:14;7.90;99.90
15182;DHT22;7692;50.602;8.692;2023-11-21T01:24:45;7.90;99.90
15182;DHT22;7692;50.602;8.692;2023-11-21T01:27:14;7.90;99.90
15182;DHT22;7692;50.602;8.692;2023-11-21T01:29:44;7.90;99.90
15182;DHT22;7692;50.602;8.692;2023-11-21T01:32:12;7.90;99.90
15182;DHT22;7692;50.602;8.692;2023-11-21T01:34:42;7.80;99.90
15182;DHT22;7692;50.602;8.692;2023-11-21T01:37:10;7.80;99.90
15182;DHT22;7692;50.602;8.692;2023-11-21T01:39:39;7.80;99.90
15182;DHT22;7692;50.602;8.692;2023-11-21T01:42:07;7.80;99.90
15182;DHT22;7692;50.602;8.692;2023-11-21T01:44:37;7.80;99.90
15182;DHT22;7692;50.602;8.692;2023-11-21T01:47:05;7.80;99.90
15182;DHT22;7692;50.602;8.692;2023-11-21T01:49:34;7.80;99.90
15182;DHT22;7692;50.602;8.692;2023-11-21T01:52:03;7.80;99.90
15182;DHT22;7692;50.602;8.692;2023-11-21T01:54:32;7.80;99.90
15182;DHT22;7692;50.602;8.692;2023-11-21T01:57:02;7.80;99.90
15182;DHT22;7692;50.602;8.692;2023-11-21T01:59:35;7.70;99.90
15182;DHT22;7692;50.602;8.692;2023-11-21T02:02:05;7.70;99.90
15182;DHT22;7692;50.602;8.692;2023-11-21T02:04:36;7.70;99.90
15182;DHT22;7692;50.602;8.692;2023-11-21T02:07:05;7.70;99.90
15182;DHT22;7692;50.602;8.692;2023-11-21T02:09:33;7.70;99.90
15182;DHT22;7692;50.602;8.692;2023-11-21T02:12:01;7.70;99.90
15182;DHT22;7692;50.602;8.692;2023-11-21T02:14:30;7.70;99.90
15182;DHT22;7692;50.602;8.692;2023-11-21T02:16:59;7.70;99.90
15182;DHT22;7692;50.602;8.692;2023-11-21T02:19:29;7.80;99.90
15182;DHT22;7692;50.602;8.692;2023-11-21T02:21:59;7.70;99.90
15182;DHT22;7692;50.602;8.692;2023-11-21T02:24:32;7.70;99.90
15182;DHT22;7692;50.602;8.692;2023-11-21T02:27:00;7.70;99.90
15182;DHT22;7692;50.602;8.692;2023-11-21T02:29:28;7.70;99.90
15182;DHT22;7692;50.602;8.692;2023-11-21T02:31:56;7.70;99.90
15182;DHT22;7692;50.602;8.692;2023-11-21T02:34:25;7.70;99.90
15182;DHT22;7692;50.602;8.692;2023-11-21T02:36:53;7.70;99.90
15182;DHT22;7692;50.602;8.692;2023-11-21T02:39:22;7.70;99.90
15182;DHT22;7692;50.602;8.692;2023-11-21T02:41:53;7.70;99.90
15182;DHT22;7692;50.602;8.692;2023-11-21T02:44:21;7.70;99.90
15182;DHT22;7692;50.602;8.692;2023-11-21T02:46:49;7.70;99.90
15182;DHT22;7692;50.602;8.692;2023-11-21T02:49:17;7.70;99.90
15182;DHT22;7692;50.602;8.692;2023-11-21T02:51:45;7.70;99.90
15182;DHT22;7692;50.602;8.692;2023-11-21T02:54:13;7.70;99.90
15182;DHT22;7692;50.602;8.692;2023-11-21T02:56:46;7.70;99.90
15182;DHT22;7692;50.602;8.692;2023-11-21T02:59:15;7.70;99.90
15182;DHT22;7692;50.602;8.692;2023-11-21T03:01:44;7.60;99.90
15182;DHT22;7692;50.602;8.692;2023-11-21T03:04:13;7.60;99.90
15182;DHT22;7692;50.602;8.692;2023-11-21T03:06:44;7.60;99.90
15182;DHT22;7692;50.602;8.692;2023-11-21T03:09:12;7.60;99.90
15182;DHT22;7692;50.602;8.692;2023-11-21T03:11:40;7.60;99.90
15182;DHT22;7692;50.602;8.692;2023-11-21T03:14:08;7.60;99.90
15182;DHT22;7692;50.602;8.692;2023-11-21T03:16:39;7.50;99.90
15182;DHT22;7692;50.602;8.692;2023-11-21T03:19:08;7.50;99.90
15182;DHT22;7692;50.602;8.692;2023-11-21T03:21:36;7.50;99.90
15182;DHT22;7692;50.602;8.692;2023-11-21T03:24:05;7.40;99.90
15182;DHT22;7692;50.602;8.692;2023-11-21T03:26:34;7.40;99.90
15182;DHT22;7692;50.602;8.692;2023-11-21T03:29:04;7.40;99.90
15182;DHT22;7692;50.602;8.692;2023-11-21T03:31:32;7.40;99.90
15182;DHT22;7692;50.602;8.692;2023-11-21T03:34:02;7.40;99.90
15182;DHT22;7692;50.602;8.692;2023-11-21T03:36:30;7.30;99.90
15182;DHT22;7692;50.602;8.692;2023-11-21T03:38:59;7.30;99.90
15182;DHT22;7692;50.602;8.692;2023-11-21T03:41:27;7.30;99.90
15182;DHT22;7692;50.602;8.692;2023-11-21T03:43:55;7.30;99.90
15182;DHT22;7692;50.602;8.692;2023-11-21T03:46:23;7.40;99.90
15182;DHT22;7692;50.602;8.692;2023-11-21T03:48:51;7.40;99.90
15182;DHT22;7692;50.602;8.692;2023-11-21T03:51:22;7.40;99.90
15182;DHT22;7692;50.602;8.692;2023-11-21T03:53:50;7.40;99.90
15182;DHT22;7692;50.602;8.692;2023-11-21T03:56:19;7.40;99.90
15182;DHT22;7692;50.602;8.692;2023-11-21T03:58:49;7.40;99.90
15182;DHT22;7692;50.602;8.692;2023-11-21T04:01:21;7.40;99.90
15182;DHT22;7692;50.602;8.692;2023-11-21T04:03:50;7.30;99.90
15182;DHT22;7692;50.602;8.692;2023-11-21T04:06:18;7.30;99.90
15182;DHT22;7692;50.602;8.692;2023-11-21T04:08:48;7.30;99.90
15182;DHT22;7692;50.602;8.692;2023-11-21T04:11:16;7.30;99.90
15182;DHT22;7692;50.602;8.692;2023-11-21T04:13:44;7.30;99.90
15182;DHT22;7692;50.602;8.692;2023-11-21T04:16:14;7.30;99.90
15182;DHT22;7692;50.602;8.692;2023-11-21T04:18:42;7.30;99.90
15182;DHT22;7692;50.602;8.692;2023-11-21T04:21:10;7.30;99.90
15182;DHT22;7692;50.602;8.692;2023-11-21T04:23:38;7.30;99.90
15182;DHT22;7692;50.602;8.692;2023-11-21T04:26:08;7.30;99.90
15182;DHT22;7692;50.602;8.692;2023-11-21T04:28:36;7.30;99.90
15182;DHT22;7692;50.602;8.692;2023-11-21T04:31:04;7.30;99.90
15182;DHT22;7692;50.602;8.692;2023-11-21T04:33:33;7.30;99.90
15182;DHT22;7692;50.602;8.692;2023-11-21T04:36:02;7.30;99.90
15182;DHT22;7692;50.602;8.692;2023-11-21T04:38:30;7.30;99.90
15182;DHT22;7692;50.602;8.692;2023-11-21T04:40:59;7.30;99.90
15182;DHT22;7692;50.602;8.692;2023-11-21T04:43:31;7.30;99.90
15182;DHT22;7692;50.602;8.692;2023-11-21T04:45:58;7.30;99.90
15182;DHT22;7692;50.602;8.692;2023-11-21T04:48:27;7.30;99.90
15182;DHT22;7692;50.602;8.692;2023-11-21T04:50:55;7.30;99.90
15182;DHT22;7692;50.602;8.692;2023-11-21T04:53:23;7.30;99.90
15182;DHT22;7692;50.602;8.692;2023-11-21T04:55:51;7.30;99.90
15182;DHT22;7692;50.602;8.692;2023-11-21T04:58:20;7.30;99.90
15182;DHT22;7692;50.602;8.692;2023-11-21T05:00:49;7.30;99.90
15182;DHT22;7692;50.602;8.692;2023-11-21T05:03:17;7.30;99.90
15182;DHT22;7692;50.602;8.692;2023-11-21T05:05:46;7.30;99.90
15182;DHT22;7692;50.602;8.692;2023-11-21T05:08:14;7.30;99.90
15182;DHT22;7692;50.602;8.692;2023-11-21T05:10:42;7.20;99.90
15182;DHT22;7692;50.602;8.692;2023-11-21T05:13:10;7.30;99.90
15182;DHT22;7692;50.602;8.692;2023-11-21T05:15:38;7.30;99.90
15182;DHT22;7692;50.602;8.692;2023-11-21T05:18:08;7.30;99.90
15182;DHT22;7692;50.602;8.692;2023-11-21T05:20:37;7.20;99.90
15182;DHT22;7692;50.602;8.692;2023-11-21T05:23:06;7.20;99.90
15182;DHT22;7692;50.602;8.692;2023-11-21T05:25:34;7.20;99.90
15182;DHT22;7692;50.602;8.692;2023-11-21T05:28:06;7.20;99.90
15182;DHT22;7692;50.602;8.692;2023-11-21T05:30:34;7.30;99.90
15182;DHT22;7692;50.602;8.692;2023-11-21T05:33:03;7.20;99.90
15182;DHT22;7692;50.602;8.692;2023-11-21T05:35:32;7.30;99.90
15182;DHT22;7692;50.602;8.692;2023-11-21T05:38:00;7.30;99.90
15182;DHT22;7692;50.602;8.692;2023-11-21T05:40:28;7.20;99.90
15182;DHT22;7692;50.602;8.692;2023-11-21T05:42:57;7.30;99.90
15182;DHT22;7692;50.602;8.692;2023-11-21T05:45:25;7.30;99.90
15182;DHT22;7692;50.602;8.692;2023-11-21T05:47:53;7.30;99.90
15182;DHT22;7692;50.602;8.692;2023-11-21T05:50:21;7.20;99.90
15182;DHT22;7692;50.602;8.692;2023-11-21T05:52:51;7.20;99.90
15182;DHT22;7692;50.602;8.692;2023-11-21T05:55:19;7.20;99.90
15182;DHT22;7692;50.602;8.692;2023-11-21T05:57:48;7.20;99.90
15182;DHT22;7692;50.602;8.692;2023-11-21T06:00:16;7.20;99.90
15182;DHT22;7692;50.602;8.692;2023-11-21T06:02:48;7.20;99.90
15182;DHT22;7692;50.602;8.692;2023-11-21T06:05:18;7.20;99.90
15182;DHT22;7692;50.602;8.692;2023-11-21T06:07:46;7.20;99.90
15182;DHT22;7692;50.602;8.692;2023-11-21T06:10:16;7.20;99.90
15182;DHT22;7692;50.602;8.692;2023-11-21T06:12:46;7.20;99.90
15182;DHT22;7692;50.602;8.692;2023-11-21T06:15:15;7.30;99.90
15182;DHT22;7692;50.602;8.692;2023-11-21T06:17:46;7.30;99.90
15182;DHT22;7692;50.602;8.692;2023-11-21T06:20:19;7.30;99.90
15182;DHT22;7692;50.602;8.692;2023-11-21T06:22:49;7.30;99.90
15182;DHT22;7692;50.602;8.692;2023-11-21T06:25:19;7.30;99.90
15182;DHT22;7692;50.602;8.692;2023-11-21T06:27:48;7.30;99.90
15182;DHT22;7692;50.602;8.692;2023-11-21T06:30:16;7.30;99.90
15182;DHT22;7692;50.602;8.692;2023-11-21T06:32:47;7.30;99.90
15182;DHT22;7692;50.602;8.692;2023-11-21T06:35:15;7.30;99.90
15182;DHT22;7692;50.602;8.692;2023-11-21T06:37:44;7.30;99.90
15182;DHT22;7692;50.602;8.692;2023-11-21T06:40:16;7.30;99.90
15182;DHT22;7692;50.602;8.692;2023-11-21T06:42:48;7.30;99.90
15182;DHT22;7692;50.602;8.692;2023-11-21T06:45:17;7.20;99.90
15182;DHT22;7692;50.602;8.692;2023-11-21T06:47:47;7.20;99.90
15182;DHT22;7692;50.602;8.692;2023-11-21T06:50:15;7.20;99.90
15182;DHT22;7692;50.602;8.692;2023-11-21T06:52:44;7.10;99.90
15182;DHT22;7692;50.602;8.692;2023-11-21T06:55:12;7.10;99.90
15182;DHT22;7692;50.602;8.692;2023-11-21T06:57:40;7.10;99.90
15182;DHT22;7692;50.602;8.692;2023-11-21T07:00:14;7.10;99.90
15182;DHT22;7692;50.602;8.692;2023-11-21T07:02:44;7.00;99.90
15182;DHT22;7692;50.602;8.692;2023-11-21T07:05:12;7.00;99.90
15182;DHT22;7692;50.602;8.692;2023-11-21T07:07:41;7.00;99.90
15182;DHT22;7692;50.602;8.692;2023-11-21T07:10:10;7.00;99.90
15182;DHT22;7692;50.602;8.692;2023-11-21T07:12:38;7.00;99.90
15182;DHT22;7692;50.602;8.692;2023-11-21T07:15:08;7.00;99.90
15182;DHT22;7692;50.602;8.692;2023-11-21T07:17:38;7.00;99.90
15182;DHT22;7692;50.602;8.692;2023-11-21T07:20:08;7.00;99.90
15182;DHT22;7692;50.602;8.692;2023-11-21T07:22:38;7.00;99.90
15182;DHT22;7692;50.602;8.692;2023-11-21T07:25:07;7.10;99.90
15182;DHT22;7692;50.602;8.692;2023-11-21T07:27:36;7.10;99.90
15182;DHT22;7692;50.602;8.692;2023-11-21T07:30:05;7.10;99.90
15182;DHT22;7692;50.602;8.692;2023-11-21T07:32:38;7.10;99.90
15182;DHT22;7692;50.602;8.692;2023-11-21T07:35:23;7.20;99.90
15182;DHT22;7692;50.602;8.692;2023-11-21T07:37:51;7.20;99.90
15182;DHT22;7692;50.602;8.692;2023-11-21T07:40:20;7.20;99.90
15182;DHT22;7692;50.602;8.692;2023-11-21T07:42:49;7.20;99.90
15182;DHT22;7692;50.602;8.692;2023-11-21T07:45:18;7.20;99.90
15182;DHT22;7692;50.602;8.692;2023-11-21T07:47:47;7.20;99.90
15182;DHT22;7692;50.602;8.692;2023-11-21T07:50:17;7.30;99.90
15182;DHT22;7692;50.602;8.692;2023-11-21T07:52:45;7.30;99.90
15182;DHT22;7692;50.602;8.692;2023-11-21T07:55:13;7.30;99.90
15182;DHT22;7692;50.602;8.692;2023-11-21T07:57:41;7.30;99.90
15182;DHT22;7692;50.602;8.692;2023-11-21T08:00:10;7.30;99.90
15182;DHT22;7692;50.602;8.692;2023-11-21T08:02:39;7.30;99.90
15182;DHT22;7692;50.602;8.692;2023-11-21T08:05:11;7.30;99.90
15182;DHT22;7692;50.602;8.692;2023-11-21T08:07:50;7.40;99.90
15182;DHT22;7692;50.602;8.692;2023-11-21T08:10:19;7.40;99.90
15182;DHT22;7692;50.602;8.692;2023-11-21T08:12:50;7.40;99.90
15182;DHT22;7692;50.602;8.692;2023-11-21T08:15:18;7.50;99.90
15182;DHT22;7692;50.602;8.692;2023-11-21T08:17:47;7.60;99.90
15182;DHT22;7692;50.602;8.692;2023-11-21T08:20:16;7.60;99.90
15182;DHT22;7692;50.602;8.692;2023-11-21T08:22:45;7.70;99.90
15182;DHT22;7692;50.602;8.692;2023-11-21T08:25:15;7.90;99.90
15182;DHT22;7692;50.602;8.692;2023-11-21T08:27:47;8.00;99.90
15182;DHT22;7692;50.602;8.692;2023-11-21T08:30:15;8.00;99.90
15182;DHT22;7692;50.602;8.692;2023-11-21T08:32:46;8.10;99.90
15182;DHT22;7692;50.602;8.692;2023-11-21T08:35:15;8.00;99.90
15182;DHT22;7692;50.602;8.692;2023-11-21T08:37:44;8.10;99.90
15182;DHT22;7692;50.602;8.692;2023-11-21T08:40:12;8.10;99.90
15182;DHT22;7692;50.602;8.692;2023-11-21T08:42:44;8.10;99.90
15182;DHT22;7692;50.602;8.692;2023-11-21T08:45:13;8.10;99.90
15182;DHT22;7692;50.602;8.692;2023-11-21T08:47:42;8.10;99.90
15182;DHT22;7692;50.602;8.692;2023-11-21T08:50:11;8.20;99.90
15182;DHT22;7692;50.602;8.692;2023-11-21T08:52:41;8.20;99.90
15182;DHT22;7692;50.602;8.692;2023-11-21T08:55:09;8.20;99.90
15182;DHT22;7692;50.602;8.692;2023-11-21T08:57:40;8.30;99.90
15182;DHT22;7692;50.602;8.692;2023-11-21T09:00:10;8.30;99.90
15182;DHT22;7692;50.602;8.692;2023-11-21T09:02:39;8.30;99.90
15182;DHT22;7692;50.602;8.692;2023-11-21T09:05:09;8.40;99.90
15182;DHT22;7692;50.602;8.692;2023-11-21T09:07:39;8.40;99.90
15182;DHT22;7692;50.602;8.692;2023-11-21T09:10:09;8.50;99.90
15182;DHT22;7692;50.602;8.692;2023-11-21T09:12:38;8.50;99.90
15182;DHT22;7692;50.602;8.692;2023-11-21T09:15:07;8.50;99.90
15182;DHT22;7692;50.602;8.692;2023-11-21T09:17:36;8.60;99.90
15182;DHT22;7692;50.602;8.692;2023-11-21T09:20:06;8.60;99.90
15182;DHT22;7692;50.602;8.692;2023-11-21T09:22:38;8.70;99.90
15182;DHT22;7692;50.602;8.692;2023-11-21T09:25:08;8.80;99.90
15182;DHT22;7692;50.602;8.692;2023-11-21T09:27:36;8.90;99.90
15182;DHT22;7692;50.602;8.692;2023-11-21T09:30:06;8.90;99.90
15182;DHT22;7692;50.602;8.692;2023-11-21T09:32:38;9.00;99.90
15182;DHT22;7692;50.602;8.692;2023-11-21T09:35:10;9.10;99.90
15182;DHT22;7692;50.602;8.692;2023-11-21T09:37:44;9.20;99.90
15182;DHT22;7692;50.602;8.692;2023-11-21T09:40:20;9.30;99.90
15182;DHT22;7692;50.602;8.692;2023-11-21T09:42:54;9.30;99.90
15182;DHT22;7692;50.602;8.692;2023-11-21T09:45:26;9.40;99.90
15182;DHT22;7692;50.602;8.692;2023-11-21T09:47:56;9.40;99.90
15182;DHT22;7692;50.602;8.692;2023-11-21T09:50:25;9.50;99.90
15182;DHT22;7692;50.602;8.692;2023-11-21T09:53:02;9.50;99.90
15182;DHT22;7692;50.602;8.692;2023-11-21T09:55:35;9.70;99.90
15182;DHT22;7692;50.602;8.692;2023-11-21T09:58:05;9.90;99.90
15182;DHT22;7692;50.602;8.692;2023-11-21T10:00:35;10.30;99.90
15182;DHT22;7692;50.602;8.692;2023-11-21T10:10:32;13.10;99.90
15182;DHT22;7692;50.602;8.692;2023-11-21T10:13:03;13.40;99.90
15182;DHT22;7692;50.602;8.692;2023-11-21T10:15:34;13.70;99.90
15182;DHT22;7692;50.602;8.692;2023-11-21T10:18:03;13.80;99.90
15182;DHT22;7692;50.602;8.692;2023-11-21T10:20:33;13.80;99.90
15182;DHT22;7692;50.602;8.692;2023-11-21T10:23:01;13.50;99.90
15182;DHT22;7692;50.602;8.692;2023-11-21T10:25:30;13.20;99.90
15182;DHT22;7692;50.602;8.692;2023-11-21T17:38:22;8.80;99.90
15182;DHT22;7692;50.602;8.692;2023-11-21T17:40:50;8.40;99.90
15182;DHT22;7692;50.602;8.692;2023-11-21T17:43:19;8.30;99.90
15182;DHT22;7692;50.602;8.692;2023-11-21T17:45:47;8.10;99.90
15182;DHT22;7692;50.602;8.692;2023-11-21T17:48:16;8.00;99.90
15182;DHT22;7692;50.602;8.692;2023-11-21T17:50:45;7.90;99.90
15182;DHT22;7692;50.602;8.692;2023-11-21T17:53:14;7.80;99.90
15182;DHT22;7692;50.602;8.692;2023-11-21T17:55:42;7.70;99.90
15182;DHT22;7692;50.602;8.692;2023-11-21T17:58:10;7.70;99.90
15182;DHT22;7692;50.602;8.692;2023-11-21T18:00:39;7.60;99.90
15182;DHT22;7692;50.602;8.692;2023-11-21T18:03:07;7.50;99.90
15182;DHT22;7692;50.602;8.692;2023-11-21T18:05:37;7.40;99.90
15182;DHT22;7692;50.602;8.692;2023-11-21T18:08:06;7.40;99.90
15182;DHT22;7692;50.602;8.692;2023-11-21T18:10:37;7.30;99.90
15182;DHT22;7692;50.602;8.692;2023-11-21T18:13:05;7.30;99.90
15182;DHT22;7692;50.602;8.692;2023-11-21T18:15:33;7.20;99.90
15182;DHT22;7692;50.602;8.692;2023-11-21T18:18:01;7.20;99.90
15182;DHT22;7692;50.602;8.692;2023-11-21T18:20:30;7.10;99.90
15182;DHT22;7692;50.602;8.692;2023-11-21T18:22:58;7.10;99.90
15182;DHT22;7692;50.602;8.692;2023-11-21T18:25:28;7.00;99.90
15182;DHT22;7692;50.602;8.692;2023-11-21T19:17:45;6.70;99.90
15182;DHT22;7692;50.602;8.692;2023-11-21T19:20:14;6.70;99.90
15182;DHT22;7692;50.602;8.692;2023-11-21T19:22:44;6.60;99.90
15182;DHT22;7692;50.602;8.692;2023-11-21T19:25:12;6.50;99.90
15182;DHT22;7692;50.602;8.692;2023-11-21T19:27:41;6.50;99.90
15182;DHT22;7692;50.602;8.692;2023-11-21T19:30:11;6.50;99.90
15182;DHT22;7692;50.602;8.692;2023-11-21T19:32:41;6.40;99.90
15182;DHT22;7692;50.602;8.692;2023-11-21T19:37:45;6.40;99.90
15182;DHT22;7692;50.602;8.692;2023-11-21T19:40:14;6.40;99.90
15182;DHT22;7692;50.602;8.692;2023-11-21T19:42:49;6.40;99.90
15182;DHT22;7692;50.602;8.692;2023-11-21T19:45:18;6.40;99.90
15182;DHT22;7692;50.602;8.692;2023-11-21T19:47:48;6.40;99.90
15182;DHT22;7692;50.602;8.692;2023-11-21T19:50:17;6.30;99.90
15182;DHT22;7692;50.602;8.692;2023-11-21T19:52:45;6.30;99.90
15182;DHT22;7692;50.602;8.692;2023-11-21T19:55:13;6.30;99.90
15182;DHT22;7692;50.602;8.692;2023-11-21T19:57:43;6.30;99.90
15182;DHT22;7692;50.602;8.692;2023-11-21T20:00:12;6.30;99.90
15182;DHT22;7692;50.602;8.692;2023-11-21T20:02:41;6.30;99.90
15182;DHT22;7692;50.602;8.692;2023-11-21T20:05:12;6.30;99.90
15182;DHT22;7692;50.602;8.692;2023-11-21T20:07:42;6.20;99.90
15182;DHT22;7692;50.602;8.692;2023-11-21T20:10:10;6.20;99.90
15182;DHT22;7692;50.602;8.692;2023-11-21T20:12:39;6.20;99.90
15182;DHT22;7692;50.602;8.692;2023-11-21T20:15:11;6.20;99.90
15182;DHT22;7692;50.602;8.692;2023-11-21T20:17:39;6.20;99.90
15182;DHT22;7692;50.602;8.692;2023-11-21T20:20:13;6.10;99.90
15182;DHT22;7692;50.602;8.692;2023-11-21T20:22:43;6.20;99.90
15182;DHT22;7692;50.602;8.692;2023-11-21T20:25:12;6.10;99.90
15182;DHT22;7692;50.602;8.692;2023-11-21T20:27:41;6.10;99.90
15182;DHT22;7692;50.602;8.692;2023-11-21T20:30:10;6.10;99.90
15182;DHT22;7692;50.602;8.692;2023-11-21T20:32:38;6.00;99.90
15182;DHT22;7692;50.602;8.692;2023-11-21T20:35:07;6.00;99.90
15182;DHT22;7692;50.602;8.692;2023-11-21T20:37:38;5.90;99.90
15182;DHT22;7692;50.602;8.692;2023-11-21T20:40:07;5.90;99.90
15182;DHT22;7692;50.602;8.692;2023-11-21T20:42:36;5.90;99.90
15182;DHT22;7692;50.602;8.692;2023-11-21T20:47:40;5.80;99.90
15182;DHT22;7692;50.602;8.692;2023-11-21T20:50:10;5.70;99.90
15182;DHT22;7692;50.602;8.692;2023-11-21T20:52:39;5.70;99.90
15182;DHT22;7692;50.602;8.692;2023-11-21T20:55:08;5.70;99.90
15182;DHT22;7692;50.602;8.692;2023-11-21T20:57:38;5.70;99.90
15182;DHT22;7692;50.602;8.692;2023-11-21T21:00:09;5.60;99.90
15182;DHT22;7692;50.602;8.692;2023-11-21T21:02:40;5.60;99.90
15182;DHT22;7692;50.602;8.692;2023-11-21T21:05:08;5.60;99.90
15182;DHT22;7692;50.602;8.692;2023-11-21T21:07:37;5.60;99.90
15182;DHT22;7692;50.602;8.692;2023-11-21T21:10:07;5.60;99.90
15182;DHT22;7692;50.602;8.692;2023-11-21T22:15:07;4.90;99.90
15182;DHT22;7692;50.602;8.692;2023-11-21T23:02:17;4.10;99.90
15182;DHT22;7692;50.602;8.692;2023-11-21T23:34:46;4.30;99.90
15182;DHT22;7692;50.602;8.692;2023-11-21T23:37:14;4.30;99.90
15182;DHT22;7692;50.602;8.692;2023-11-21T23:39:44;4.20;99.90
15182;DHT22;7692;50.602;8.692;2023-11-21T23:42:12;4.20;99.90
15182;DHT22;7692;50.602;8.692;2023-11-21T23:44:42;4.20;99.90
15182;DHT22;7692;50.602;8.692;2023-11-21T23:47:14;4.30;99.90
15182;DHT22;7692;50.602;8.692;2023-11-21T23:49:42;4.30;99.90
15182;DHT22;7692;50.602;8.692;2023-11-21T23:52:10;4.30;99.90
15182;DHT22;7692;50.602;8.692;2023-11-21T23:54:38;4.40;99.90
15182;DHT22;7692;50.602;8.692;2023-11-21T23:57:09;4.40;99.90
15182;DHT22;7692;50.602;8.692;2023-11-21T23:59:37;4.40;99.90
